This is the latest recevied weather packets stored in our database for station/object N7SXG. If no packets are shown the sender has not sent any weather packets the latest 10 day(s).
| Time | Temp. | Humidity | Pressure | Rain* | Wind** | Luminosity | Snow |
|---|---|---|---|---|---|---|---|
| 1777792563 | 1.67° C | 78% | 1018.7 hPa | 0 mm | - | - | - |
| 1777788957 | 1.11° C | 76% | 1019.3 hPa | 0 mm | - | - | - |
| 1777779957 | 2.22° C | 70% | 1019.2 hPa | 0 mm | - | - | - |
| 1777778165 | 2.78° C | 66% | 1019.4 hPa | 0 mm | - | - | - |
| 1777772753 | 5° C | 57% | 1019.2 hPa | 0 mm | - | - | - |
| 1777765558 | 8.33° C | 52% | 1018.7 hPa | 0 mm | - | - | - |
| 1777764660 | 8.33° C | 52% | 1018.6 hPa | 0 mm | - | - | - |
| 1777763757 | 8.33° C | 51% | 1018.6 hPa | 0 mm | - | - | - |
| 1777758357 | 10° C | 47% | 1018.2 hPa | 0 mm | - | - | - |
| 1777751156 | 11.11° C | 45% | 1018.2 hPa | 0 mm | - | - | - |
| 1777750254 | 10.56° C | 49% | 1018.5 hPa | 0 mm | - | - | - |
| 1777748458 | 11.11° C | 46% | 1018.6 hPa | 0 mm | - | - | - |
| 1777744869 | 10.56° C | 43% | 1018.9 hPa | 0 mm | - | - | - |
| 1777743956 | 11.11° C | 47% | 1018.9 hPa | 0 mm | - | - | - |
| 1777743056 | 11.67° C | 44% | 1018.9 hPa | 0 mm | - | - | - |
| 1777739471 | 10.56° C | 43% | 1019.4 hPa | 0 mm | - | - | - |
| 1777728655 | 3.89° C | 70% | 1019.7 hPa | 0 mm | - | - | - |
| 1777726869 | 3.33° C | 73% | 1019.6 hPa | 0 mm | - | - | - |
| 1777725961 | 2.78° C | 74% | 1019.5 hPa | 0 mm | - | - | - |
| 1777724158 | 1.67° C | 78% | 1019.3 hPa | 0 mm | - | - | - |
| 1777723261 | 1.67° C | 78% | 1019.1 hPa | 0 mm | - | - | - |
| 1777721457 | 1.11° C | 78% | 1018.7 hPa | 0 mm | - | - | - |
| 1777720556 | 1.11° C | 77% | 1018.5 hPa | 0 mm | - | - | - |
| 1777719657 | 1.11° C | 76% | 1018.4 hPa | 0 mm | - | - | - |
| 1777715156 | 2.22° C | 77% | 1018.4 hPa | 0 mm | - | - | - |
* Rain latest hour (hover to see other rain measurements)
** Current wind speed in m/s (hover to see current wind gust speed)